sensor_id;sensor_type;location;lat;lon;timestamp;pressure;altitude;pressure_sealevel;temperature;humidity
42411;BME280;28056;51.112;0.984;2023-04-24T00:04:47;99530.94;;;4.38;100.00
42411;BME280;28056;51.112;0.984;2023-04-24T00:07:15;99531.81;;;4.84;100.00
42411;BME280;28056;51.112;0.984;2023-04-24T00:09:42;99530.71;;;4.50;100.00
42411;BME280;28056;51.112;0.984;2023-04-24T00:12:10;99543.84;;;4.19;100.00
42411;BME280;28056;51.112;0.984;2023-04-24T00:14:38;99552.65;;;4.60;100.00
42411;BME280;28056;51.112;0.984;2023-04-24T00:17:05;99550.40;;;4.48;100.00
42411;BME280;28056;51.112;0.984;2023-04-24T00:19:33;99555.33;;;4.77;100.00
42411;BME280;28056;51.112;0.984;2023-04-24T00:22:00;99556.75;;;4.38;100.00
42411;BME280;28056;51.112;0.984;2023-04-24T00:24:27;99563.83;;;4.70;100.00
42411;BME280;28056;51.112;0.984;2023-04-24T00:26:55;99567.01;;;4.19;100.00
42411;BME280;28056;51.112;0.984;2023-04-24T00:29:22;99568.63;;;3.94;100.00
42411;BME280;28056;51.112;0.984;2023-04-24T00:31:49;99574.27;;;4.08;100.00
42411;BME280;28056;51.112;0.984;2023-04-24T00:34:16;99576.85;;;4.04;100.00
42411;BME280;28056;51.112;0.984;2023-04-24T00:36:44;99577.49;;;4.38;100.00
42411;BME280;28056;51.112;0.984;2023-04-24T00:39:11;99578.62;;;4.39;100.00
42411;BME280;28056;51.112;0.984;2023-04-24T00:41:39;99579.97;;;4.48;100.00
42411;BME280;28056;51.112;0.984;2023-04-24T00:44:07;99581.81;;;4.41;100.00
42411;BME280;28056;51.112;0.984;2023-04-24T00:46:34;99586.87;;;4.59;100.00
42411;BME280;28056;51.112;0.984;2023-04-24T00:49:03;99591.25;;;4.23;100.00
42411;BME280;28056;51.112;0.984;2023-04-24T00:51:31;99596.96;;;4.28;100.00
42411;BME280;28056;51.112;0.984;2023-04-24T00:53:59;99604.56;;;4.45;100.00
42411;BME280;28056;51.112;0.984;2023-04-24T00:56:26;99608.60;;;4.35;100.00
42411;BME280;28056;51.112;0.984;2023-04-24T00:58:55;99611.47;;;4.34;100.00
42411;BME280;28056;51.112;0.984;2023-04-24T01:01:23;99614.19;;;3.94;100.00
42411;BME280;28056;51.112;0.984;2023-04-24T01:03:51;99620.83;;;3.83;100.00
42411;BME280;28056;51.112;0.984;2023-04-24T01:06:19;99622.71;;;3.82;100.00
42411;BME280;28056;51.112;0.984;2023-04-24T01:08:48;99624.33;;;3.95;100.00
42411;BME280;28056;51.112;0.984;2023-04-24T01:11:15;99627.66;;;3.85;100.00
42411;BME280;28056;51.112;0.984;2023-04-24T01:13:43;99627.59;;;3.70;100.00
42411;BME280;28056;51.112;0.984;2023-04-24T01:16:10;99625.82;;;3.58;100.00
42411;BME280;28056;51.112;0.984;2023-04-24T01:18:37;99631.40;;;3.99;100.00
42411;BME280;28056;51.112;0.984;2023-04-24T01:21:06;99632.48;;;3.98;100.00
42411;BME280;28056;51.112;0.984;2023-04-24T01:23:35;99638.54;;;4.36;100.00
42411;BME280;28056;51.112;0.984;2023-04-24T01:26:02;99644.21;;;3.98;100.00
42411;BME280;28056;51.112;0.984;2023-04-24T01:28:30;99646.57;;;3.86;100.00
42411;BME280;28056;51.112;0.984;2023-04-24T01:30:57;99639.58;;;3.99;100.00
42411;BME280;28056;51.112;0.984;2023-04-24T01:33:25;99644.17;;;3.66;100.00
42411;BME280;28056;51.112;0.984;2023-04-24T01:35:52;99650.33;;;3.82;100.00
42411;BME280;28056;51.112;0.984;2023-04-24T01:38:20;99650.95;;;4.28;100.00
42411;BME280;28056;51.112;0.984;2023-04-24T01:40:48;99651.73;;;3.91;100.00
42411;BME280;28056;51.112;0.984;2023-04-24T01:43:16;99653.61;;;4.06;99.02
42411;BME280;28056;51.112;0.984;2023-04-24T01:45:44;99655.83;;;3.95;99.33
42411;BME280;28056;51.112;0.984;2023-04-24T01:48:12;99657.41;;;3.65;100.00
42411;BME280;28056;51.112;0.984;2023-04-24T01:50:39;99657.99;;;3.79;99.90
42411;BME280;28056;51.112;0.984;2023-04-24T01:53:07;99662.77;;;4.03;98.08
42411;BME280;28056;51.112;0.984;2023-04-24T01:55:34;99669.74;;;3.84;98.45
42411;BME280;28056;51.112;0.984;2023-04-24T01:58:02;99672.36;;;3.64;98.81
42411;BME280;28056;51.112;0.984;2023-04-24T02:00:29;99677.17;;;3.63;98.89
42411;BME280;28056;51.112;0.984;2023-04-24T02:02:57;99680.42;;;4.10;99.42
42411;BME280;28056;51.112;0.984;2023-04-24T02:05:24;99681.46;;;3.52;99.82
42411;BME280;28056;51.112;0.984;2023-04-24T02:07:51;99687.73;;;3.95;99.20
42411;BME280;28056;51.112;0.984;2023-04-24T02:10:19;99689.00;;;4.08;98.29
42411;BME280;28056;51.112;0.984;2023-04-24T02:12:46;99689.57;;;3.85;98.47
42411;BME280;28056;51.112;0.984;2023-04-24T02:15:13;99682.60;;;4.16;97.63
42411;BME280;28056;51.112;0.984;2023-04-24T02:17:40;99683.78;;;4.13;96.90
42411;BME280;28056;51.112;0.984;2023-04-24T02:20:08;99684.03;;;3.74;97.48
42411;BME280;28056;51.112;0.984;2023-04-24T02:22:35;99685.26;;;3.86;98.60
42411;BME280;28056;51.112;0.984;2023-04-24T02:25:03;99687.31;;;4.17;98.37
42411;BME280;28056;51.112;0.984;2023-04-24T02:27:30;99691.79;;;4.14;98.83
42411;BME280;28056;51.112;0.984;2023-04-24T02:29:57;99688.33;;;4.25;97.74
42411;BME280;28056;51.112;0.984;2023-04-24T02:32:25;99688.53;;;4.23;95.94
42411;BME280;28056;51.112;0.984;2023-04-24T02:34:53;99685.87;;;4.57;94.89
42411;BME280;28056;51.112;0.984;2023-04-24T02:37:20;99679.84;;;4.86;94.26
42411;BME280;28056;51.112;0.984;2023-04-24T02:39:47;99678.89;;;4.54;93.02
42411;BME280;28056;51.112;0.984;2023-04-24T02:42:15;99685.46;;;4.63;93.06
42411;BME280;28056;51.112;0.984;2023-04-24T02:44:42;99686.99;;;4.91;92.76
42411;BME280;28056;51.112;0.984;2023-04-24T02:47:09;99686.21;;;5.28;89.75
42411;BME280;28056;51.112;0.984;2023-04-24T02:49:37;99684.36;;;5.24;89.31
42411;BME280;28056;51.112;0.984;2023-04-24T02:52:05;99681.97;;;5.53;88.08
42411;BME280;28056;51.112;0.984;2023-04-24T02:54:33;99685.72;;;5.37;87.74
42411;BME280;28056;51.112;0.984;2023-04-24T02:57:00;99693.48;;;4.87;89.49
42411;BME280;28056;51.112;0.984;2023-04-24T02:59:27;99697.57;;;5.17;89.57
42411;BME280;28056;51.112;0.984;2023-04-24T03:01:55;99701.54;;;5.17;89.06
42411;BME280;28056;51.112;0.984;2023-04-24T03:04:23;99716.26;;;4.65;91.78
42411;BME280;28056;51.112;0.984;2023-04-24T03:06:50;99722.23;;;4.60;93.24
42411;BME280;28056;51.112;0.984;2023-04-24T03:09:18;99722.25;;;4.86;91.86
42411;BME280;28056;51.112;0.984;2023-04-24T03:11:45;99723.71;;;4.88;92.81
42411;BME280;28056;51.112;0.984;2023-04-24T03:14:12;99727.99;;;4.75;93.23
42411;BME280;28056;51.112;0.984;2023-04-24T03:16:39;99731.49;;;4.70;94.26
42411;BME280;28056;51.112;0.984;2023-04-24T03:19:07;99727.65;;;5.11;92.67
42411;BME280;28056;51.112;0.984;2023-04-24T03:21:34;99730.08;;;5.54;90.81
42411;BME280;28056;51.112;0.984;2023-04-24T03:24:01;99732.22;;;5.02;91.84
42411;BME280;28056;51.112;0.984;2023-04-24T03:26:28;99730.77;;;5.63;90.23
42411;BME280;28056;51.112;0.984;2023-04-24T03:28:55;99730.23;;;5.44;89.47
42411;BME280;28056;51.112;0.984;2023-04-24T03:31:23;99731.06;;;5.26;89.92
42411;BME280;28056;51.112;0.984;2023-04-24T03:33:50;99730.28;;;5.52;89.80
42411;BME280;28056;51.112;0.984;2023-04-24T03:36:17;99728.71;;;5.37;89.60
42411;BME280;28056;51.112;0.984;2023-04-24T03:38:45;99733.82;;;4.94;91.29
42411;BME280;28056;51.112;0.984;2023-04-24T03:41:12;99737.57;;;5.05;92.49
42411;BME280;28056;51.112;0.984;2023-04-24T03:43:40;99740.56;;;5.18;92.00
42411;BME280;28056;51.112;0.984;2023-04-24T03:46:07;99743.94;;;5.08;92.72
42411;BME280;28056;51.112;0.984;2023-04-24T03:48:34;99749.60;;;5.02;94.44
42411;BME280;28056;51.112;0.984;2023-04-24T03:51:02;99749.66;;;5.15;93.68
42411;BME280;28056;51.112;0.984;2023-04-24T03:53:29;99763.66;;;4.51;96.81
42411;BME280;28056;51.112;0.984;2023-04-24T03:55:56;99765.85;;;4.66;97.52
42411;BME280;28056;51.112;0.984;2023-04-24T03:58:24;99772.72;;;4.50;99.37
42411;BME280;28056;51.112;0.984;2023-04-24T04:00:51;99773.91;;;4.26;100.00
42411;BME280;28056;51.112;0.984;2023-04-24T04:03:19;99773.88;;;4.58;100.00
42411;BME280;28056;51.112;0.984;2023-04-24T04:05:46;99775.88;;;4.66;98.40
42411;BME280;28056;51.112;0.984;2023-04-24T04:08:14;99781.76;;;5.04;98.53
42411;BME280;28056;51.112;0.984;2023-04-24T04:10:42;99778.43;;;4.22;98.46
42411;BME280;28056;51.112;0.984;2023-04-24T04:13:09;99780.26;;;4.47;98.43
42411;BME280;28056;51.112;0.984;2023-04-24T04:15:36;99780.71;;;4.64;98.23
42411;BME280;28056;51.112;0.984;2023-04-24T04:18:03;99786.92;;;4.69;96.80
42411;BME280;28056;51.112;0.984;2023-04-24T04:20:31;99793.12;;;4.43;98.22
42411;BME280;28056;51.112;0.984;2023-04-24T04:22:58;99795.39;;;4.66;97.55
42411;BME280;28056;51.112;0.984;2023-04-24T04:25:26;99797.54;;;4.27;97.77
42411;BME280;28056;51.112;0.984;2023-04-24T04:27:54;99802.88;;;4.66;96.04
42411;BME280;28056;51.112;0.984;2023-04-24T04:30:21;99805.39;;;4.66;94.36
42411;BME280;28056;51.112;0.984;2023-04-24T04:32:48;99815.60;;;5.16;92.80
42411;BME280;28056;51.112;0.984;2023-04-24T04:35:16;99819.20;;;4.47;93.51
42411;BME280;28056;51.112;0.984;2023-04-24T04:37:43;99825.08;;;4.84;92.81
42411;BME280;28056;51.112;0.984;2023-04-24T04:40:11;99830.33;;;4.77;92.28
42411;BME280;28056;51.112;0.984;2023-04-24T04:42:38;99832.68;;;5.36;90.13
42411;BME280;28056;51.112;0.984;2023-04-24T04:45:06;99841.34;;;5.28;88.25
42411;BME280;28056;51.112;0.984;2023-04-24T04:47:34;99844.59;;;4.61;90.46
42411;BME280;28056;51.112;0.984;2023-04-24T04:50:01;99846.51;;;5.04;88.91
42411;BME280;28056;51.112;0.984;2023-04-24T04:52:28;99853.06;;;5.50;88.03
42411;BME280;28056;51.112;0.984;2023-04-24T04:54:56;99860.33;;;5.16;88.17
42411;BME280;28056;51.112;0.984;2023-04-24T04:57:23;99863.64;;;5.58;87.40
42411;BME280;28056;51.112;0.984;2023-04-24T04:59:50;99861.46;;;5.93;85.92
42411;BME280;28056;51.112;0.984;2023-04-24T05:02:18;99865.16;;;5.61;86.71
42411;BME280;28056;51.112;0.984;2023-04-24T05:04:45;99870.68;;;5.36;88.48
42411;BME280;28056;51.112;0.984;2023-04-24T05:07:12;99872.08;;;5.47;88.12
42411;BME280;28056;51.112;0.984;2023-04-24T05:09:39;99873.91;;;5.58;89.49
42411;BME280;28056;51.112;0.984;2023-04-24T05:12:06;99873.09;;;5.53;89.50
42411;BME280;28056;51.112;0.984;2023-04-24T05:14:33;99878.50;;;5.64;89.57
42411;BME280;28056;51.112;0.984;2023-04-24T05:17:01;99890.15;;;5.64;90.50
42411;BME280;28056;51.112;0.984;2023-04-24T05:19:28;99896.80;;;5.50;91.28
42411;BME280;28056;51.112;0.984;2023-04-24T05:21:55;99897.79;;;5.70;91.30
42411;BME280;28056;51.112;0.984;2023-04-24T05:24:22;99894.62;;;5.84;92.56
42411;BME280;28056;51.112;0.984;2023-04-24T05:26:50;99894.45;;;5.57;92.70
42411;BME280;28056;51.112;0.984;2023-04-24T05:29:17;99896.89;;;5.71;94.04
42411;BME280;28056;51.112;0.984;2023-04-24T05:31:45;99904.75;;;5.27;96.78
42411;BME280;28056;51.112;0.984;2023-04-24T05:34:12;99908.81;;;5.29;98.84
42411;BME280;28056;51.112;0.984;2023-04-24T05:36:39;99913.66;;;5.31;100.00
42411;BME280;28056;51.112;0.984;2023-04-24T05:39:07;99916.29;;;4.75;100.00
42411;BME280;28056;51.112;0.984;2023-04-24T05:41:34;99922.15;;;4.94;100.00
42411;BME280;28056;51.112;0.984;2023-04-24T05:44:01;99925.11;;;4.81;100.00
42411;BME280;28056;51.112;0.984;2023-04-24T05:46:29;99928.59;;;5.02;100.00
42411;BME280;28056;51.112;0.984;2023-04-24T05:48:56;99928.73;;;5.03;100.00
42411;BME280;28056;51.112;0.984;2023-04-24T05:51:24;99932.34;;;4.93;100.00
42411;BME280;28056;51.112;0.984;2023-04-24T05:53:52;99934.24;;;5.38;100.00
42411;BME280;28056;51.112;0.984;2023-04-24T05:56:20;99934.71;;;5.41;100.00
42411;BME280;28056;51.112;0.984;2023-04-24T05:58:47;99938.33;;;5.12;100.00
42411;BME280;28056;51.112;0.984;2023-04-24T06:01:15;99935.80;;;5.41;100.00
42411;BME280;28056;51.112;0.984;2023-04-24T06:03:42;99939.80;;;4.97;100.00
42411;BME280;28056;51.112;0.984;2023-04-24T06:06:10;99945.39;;;5.36;100.00
42411;BME280;28056;51.112;0.984;2023-04-24T06:08:37;99948.75;;;4.93;100.00
42411;BME280;28056;51.112;0.984;2023-04-24T06:11:05;99949.41;;;5.09;100.00
42411;BME280;28056;51.112;0.984;2023-04-24T06:13:33;99951.51;;;5.00;100.00
42411;BME280;28056;51.112;0.984;2023-04-24T06:16:00;99951.99;;;4.90;100.00
42411;BME280;28056;51.112;0.984;2023-04-24T06:18:28;99954.14;;;5.09;100.00
42411;BME280;28056;51.112;0.984;2023-04-24T06:20:55;99958.97;;;5.54;100.00
42411;BME280;28056;51.112;0.984;2023-04-24T06:23:22;99962.77;;;5.86;100.00
42411;BME280;28056;51.112;0.984;2023-04-24T06:25:50;99966.08;;;5.42;100.00
42411;BME280;28056;51.112;0.984;2023-04-24T06:28:18;99969.85;;;5.67;100.00
42411;BME280;28056;51.112;0.984;2023-04-24T06:30:46;99971.06;;;5.55;100.00
42411;BME280;28056;51.112;0.984;2023-04-24T06:33:13;99971.73;;;5.66;100.00
42411;BME280;28056;51.112;0.984;2023-04-24T06:35:40;99975.99;;;5.86;100.00
42411;BME280;28056;51.112;0.984;2023-04-24T06:38:08;99978.18;;;6.22;100.00
42411;BME280;28056;51.112;0.984;2023-04-24T06:40:37;99975.79;;;6.17;100.00
42411;BME280;28056;51.112;0.984;2023-04-24T06:43:04;99977.18;;;5.89;100.00
42411;BME280;28056;51.112;0.984;2023-04-24T06:45:32;99977.12;;;6.50;100.00
42411;BME280;28056;51.112;0.984;2023-04-24T06:48:00;99971.22;;;6.80;98.77
42411;BME280;28056;51.112;0.984;2023-04-24T06:50:28;99978.35;;;6.55;98.44
42411;BME280;28056;51.112;0.984;2023-04-24T06:52:55;99978.18;;;6.66;96.90
42411;BME280;28056;51.112;0.984;2023-04-24T06:55:22;99973.91;;;6.90;95.46
42411;BME280;28056;51.112;0.984;2023-04-24T06:57:49;99977.78;;;7.41;94.60
42411;BME280;28056;51.112;0.984;2023-04-24T07:00:17;99976.04;;;8.16;90.97
42411;BME280;28056;51.112;0.984;2023-04-24T07:02:44;99977.43;;;6.86;89.47
42411;BME280;28056;51.112;0.984;2023-04-24T07:05:11;99984.45;;;6.18;90.16
42411;BME280;28056;51.112;0.984;2023-04-24T07:07:39;99984.17;;;7.93;86.98
42411;BME280;28056;51.112;0.984;2023-04-24T07:10:07;99986.24;;;8.46;83.98
42411;BME280;28056;51.112;0.984;2023-04-24T07:12:34;99997.40;;;6.10;90.31
42411;BME280;28056;51.112;0.984;2023-04-24T07:15:01;99998.91;;;5.59;92.79
42411;BME280;28056;51.112;0.984;2023-04-24T07:17:28;99997.02;;;5.10;92.49
42411;BME280;28056;51.112;0.984;2023-04-24T07:19:55;100000.74;;;5.74;89.90
42411;BME280;28056;51.112;0.984;2023-04-24T07:22:23;100001.70;;;5.01;91.71
42411;BME280;28056;51.112;0.984;2023-04-24T07:24:51;100003.73;;;4.93;94.17
42411;BME280;28056;51.112;0.984;2023-04-24T07:27:18;100002.52;;;5.19;93.10
42411;BME280;28056;51.112;0.984;2023-04-24T07:30:08;100001.09;;;6.13;90.63
42411;BME280;28056;51.112;0.984;2023-04-24T07:32:36;99998.18;;;6.46;87.13
42411;BME280;28056;51.112;0.984;2023-04-24T07:35:03;99997.51;;;6.25;85.02
42411;BME280;28056;51.112;0.984;2023-04-24T07:37:31;99997.36;;;6.68;86.97
42411;BME280;28056;51.112;0.984;2023-04-24T07:40:14;99998.40;;;6.69;84.47
42411;BME280;28056;51.112;0.984;2023-04-24T07:42:51;99998.03;;;7.51;86.68
42411;BME280;28056;51.112;0.984;2023-04-24T07:45:28;99995.47;;;6.88;82.39
42411;BME280;28056;51.112;0.984;2023-04-24T07:52:25;99998.14;;;6.65;86.72
42411;BME280;28056;51.112;0.984;2023-04-24T07:54:52;100004.28;;;6.01;88.57
42411;BME280;28056;51.112;0.984;2023-04-24T07:57:20;100007.52;;;6.06;89.50
42411;BME280;28056;51.112;0.984;2023-04-24T07:59:47;100008.91;;;5.85;88.92
42411;BME280;28056;51.112;0.984;2023-04-24T08:06:02;100010.18;;;6.18;88.00
42411;BME280;28056;51.112;0.984;2023-04-24T08:08:30;100006.22;;;6.49;87.27
42411;BME280;28056;51.112;0.984;2023-04-24T08:10:58;100009.09;;;6.51;87.24
42411;BME280;28056;51.112;0.984;2023-04-24T08:13:25;100002.78;;;7.12;86.65
42411;BME280;28056;51.112;0.984;2023-04-24T08:15:52;100006.47;;;6.79;86.28
42411;BME280;28056;51.112;0.984;2023-04-24T08:19:27;100010.67;;;6.96;85.90
42411;BME280;28056;51.112;0.984;2023-04-24T08:21:55;100015.08;;;6.99;84.99
42411;BME280;28056;51.112;0.984;2023-04-24T08:24:22;100014.13;;;7.28;81.29
42411;BME280;28056;51.112;0.984;2023-04-24T08:26:50;100016.40;;;7.26;83.49
42411;BME280;28056;51.112;0.984;2023-04-24T08:29:17;100014.22;;;7.76;82.75
42411;BME280;28056;51.112;0.984;2023-04-24T08:31:45;100018.74;;;6.66;80.24
42411;BME280;28056;51.112;0.984;2023-04-24T08:34:19;100020.61;;;6.81;79.14
42411;BME280;28056;51.112;0.984;2023-04-24T08:36:48;100024.02;;;7.00;84.13
42411;BME280;28056;51.112;0.984;2023-04-24T08:39:16;100027.95;;;6.70;83.40
42411;BME280;28056;51.112;0.984;2023-04-24T08:41:44;100028.18;;;6.92;83.21
42411;BME280;28056;51.112;0.984;2023-04-24T08:44:12;100030.13;;;7.39;83.86
42411;BME280;28056;51.112;0.984;2023-04-24T08:46:40;100036.46;;;7.01;80.44
42411;BME280;28056;51.112;0.984;2023-04-24T08:49:09;100036.93;;;8.35;79.26
42411;BME280;28056;51.112;0.984;2023-04-24T08:51:37;100037.96;;;7.82;77.29
42411;BME280;28056;51.112;0.984;2023-04-24T08:54:05;100037.51;;;7.82;78.61
42411;BME280;28056;51.112;0.984;2023-04-24T08:56:37;100032.87;;;8.28;74.03
42411;BME280;28056;51.112;0.984;2023-04-24T08:59:05;100031.47;;;8.57;71.50
42411;BME280;28056;51.112;0.984;2023-04-24T09:01:35;100033.64;;;8.07;74.59
42411;BME280;28056;51.112;0.984;2023-04-24T09:04:04;100034.42;;;8.22;70.00
42411;BME280;28056;51.112;0.984;2023-04-24T09:06:34;100034.99;;;8.12;75.01
42411;BME280;28056;51.112;0.984;2023-04-24T09:09:02;100037.56;;;8.46;71.10
42411;BME280;28056;51.112;0.984;2023-04-24T09:11:31;100040.30;;;8.62;70.80
42411;BME280;28056;51.112;0.984;2023-04-24T09:13:58;100041.39;;;9.32;68.48
42411;BME280;28056;51.112;0.984;2023-04-24T09:16:26;100044.72;;;9.43;68.40
42411;BME280;28056;51.112;0.984;2023-04-24T09:18:55;100047.73;;;8.71;67.85
42411;BME280;28056;51.112;0.984;2023-04-24T09:21:22;100050.62;;;8.52;67.61
42411;BME280;28056;51.112;0.984;2023-04-24T09:23:58;100051.02;;;7.88;71.39
42411;BME280;28056;51.112;0.984;2023-04-24T09:26:29;100053.93;;;7.88;68.83
42411;BME280;28056;51.112;0.984;2023-04-24T09:28:57;100057.82;;;7.93;70.36
42411;BME280;28056;51.112;0.984;2023-04-24T09:31:27;100058.58;;;8.86;66.64
42411;BME280;28056;51.112;0.984;2023-04-24T09:33:55;100057.86;;;7.99;67.98
42411;BME280;28056;51.112;0.984;2023-04-24T09:36:32;100062.32;;;8.71;70.84
42411;BME280;28056;51.112;0.984;2023-04-24T09:39:00;100064.16;;;9.45;67.75
42411;BME280;28056;51.112;0.984;2023-04-24T09:41:28;100070.63;;;8.85;67.45
42411;BME280;28056;51.112;0.984;2023-04-24T09:43:56;100072.16;;;7.90;70.05
42411;BME280;28056;51.112;0.984;2023-04-24T09:46:30;100080.23;;;7.65;70.74
42411;BME280;28056;51.112;0.984;2023-04-24T09:48:57;100079.57;;;8.21;70.97
42411;BME280;28056;51.112;0.984;2023-04-24T09:51:35;100079.09;;;8.10;67.94
42411;BME280;28056;51.112;0.984;2023-04-24T09:54:04;100086.74;;;7.59;69.73
42411;BME280;28056;51.112;0.984;2023-04-24T09:56:33;100085.27;;;7.48;70.39
42411;BME280;28056;51.112;0.984;2023-04-24T09:59:08;100087.29;;;7.20;69.72
42411;BME280;28056;51.112;0.984;2023-04-24T10:01:35;100091.42;;;7.95;71.69
42411;BME280;28056;51.112;0.984;2023-04-24T10:04:03;100095.24;;;7.58;66.04
42411;BME280;28056;51.112;0.984;2023-04-24T10:06:34;100096.43;;;7.61;69.86
42411;BME280;28056;51.112;0.984;2023-04-24T10:09:02;100098.62;;;7.64;68.33
42411;BME280;28056;51.112;0.984;2023-04-24T10:11:30;100100.03;;;7.79;68.60
42411;BME280;28056;51.112;0.984;2023-04-24T10:13:57;100098.96;;;7.69;66.12
42411;BME280;28056;51.112;0.984;2023-04-24T10:16:25;100101.27;;;8.16;63.77
42411;BME280;28056;51.112;0.984;2023-04-24T10:18:53;100102.42;;;9.41;64.73
42411;BME280;28056;51.112;0.984;2023-04-24T10:21:21;100102.69;;;9.15;62.00
42411;BME280;28056;51.112;0.984;2023-04-24T10:23:50;100099.81;;;10.21;62.23
42411;BME280;28056;51.112;0.984;2023-04-24T10:26:18;100100.60;;;10.39;62.10
42411;BME280;28056;51.112;0.984;2023-04-24T10:28:47;100099.14;;;10.09;65.38
42411;BME280;28056;51.112;0.984;2023-04-24T10:31:15;100107.34;;;10.50;60.07
42411;BME280;28056;51.112;0.984;2023-04-24T10:33:43;100108.92;;;11.19;55.50
42411;BME280;28056;51.112;0.984;2023-04-24T10:36:12;100113.57;;;9.35;59.08
42411;BME280;28056;51.112;0.984;2023-04-24T10:38:42;100111.92;;;9.87;57.14
42411;BME280;28056;51.112;0.984;2023-04-24T10:41:12;100113.05;;;9.17;59.68
42411;BME280;28056;51.112;0.984;2023-04-24T10:43:40;100109.27;;;9.86;63.74
42411;BME280;28056;51.112;0.984;2023-04-24T10:46:08;100106.86;;;10.82;56.50
42411;BME280;28056;51.112;0.984;2023-04-24T10:48:36;100110.42;;;11.68;55.63
42411;BME280;28056;51.112;0.984;2023-04-24T10:51:12;100114.15;;;11.24;54.95
42411;BME280;28056;51.112;0.984;2023-04-24T10:53:40;100118.79;;;11.24;59.23
42411;BME280;28056;51.112;0.984;2023-04-24T10:56:09;100119.93;;;10.34;55.23
42411;BME280;28056;51.112;0.984;2023-04-24T10:58:38;100119.26;;;11.96;51.07
42411;BME280;28056;51.112;0.984;2023-04-24T11:02:01;100115.46;;;12.79;50.53
42411;BME280;28056;51.112;0.984;2023-04-24T11:04:53;100113.33;;;13.35;52.12
42411;BME280;28056;51.112;0.984;2023-04-24T11:08:28;100116.60;;;11.58;51.94
42411;BME280;28056;51.112;0.984;2023-04-24T11:10:59;100104.35;;;13.24;47.84
42411;BME280;28056;51.112;0.984;2023-04-24T11:14:01;100110.22;;;13.99;49.80
42411;BME280;28056;51.112;0.984;2023-04-24T11:16:30;100116.64;;;11.68;50.25
42411;BME280;28056;51.112;0.984;2023-04-24T11:19:06;100115.28;;;13.21;48.94
42411;BME280;28056;51.112;0.984;2023-04-24T11:21:43;100110.12;;;13.70;45.43
42411;BME280;28056;51.112;0.984;2023-04-24T11:24:50;100107.71;;;14.17;48.27
42411;BME280;28056;51.112;0.984;2023-04-24T11:27:20;100108.36;;;14.30;44.61
42411;BME280;28056;51.112;0.984;2023-04-24T11:29:49;100117.37;;;14.22;45.06
42411;BME280;28056;51.112;0.984;2023-04-24T11:32:17;100120.88;;;13.15;43.10
42411;BME280;28056;51.112;0.984;2023-04-24T11:34:47;100120.77;;;12.96;44.53
42411;BME280;28056;51.112;0.984;2023-04-24T11:37:16;100127.90;;;12.45;48.83
42411;BME280;28056;51.112;0.984;2023-04-24T11:39:43;100126.66;;;13.59;43.96
42411;BME280;28056;51.112;0.984;2023-04-24T11:42:12;100127.78;;;10.87;50.50
42411;BME280;28056;51.112;0.984;2023-04-24T11:44:42;100129.64;;;10.83;50.60
42411;BME280;28056;51.112;0.984;2023-04-24T11:47:10;100133.38;;;10.46;53.40
42411;BME280;28056;51.112;0.984;2023-04-24T11:49:38;100134.34;;;11.91;52.06
42411;BME280;28056;51.112;0.984;2023-04-24T11:52:07;100128.47;;;12.95;48.48
42411;BME280;28056;51.112;0.984;2023-04-24T11:54:35;100129.64;;;12.38;49.67
42411;BME280;28056;51.112;0.984;2023-04-24T11:57:05;100124.09;;;12.84;49.72
42411;BME280;28056;51.112;0.984;2023-04-24T11:59:36;100119.47;;;13.51;51.30
42411;BME280;28056;51.112;0.984;2023-04-24T12:02:03;100124.68;;;14.36;43.61
42411;BME280;28056;51.112;0.984;2023-04-24T12:04:39;100124.99;;;13.83;47.36
42411;BME280;28056;51.112;0.984;2023-04-24T12:07:08;100126.66;;;14.46;43.83
42411;BME280;28056;51.112;0.984;2023-04-24T12:09:44;100128.02;;;15.58;46.09
42411;BME280;28056;51.112;0.984;2023-04-24T12:12:12;100124.53;;;13.67;43.97
42411;BME280;28056;51.112;0.984;2023-04-24T12:14:44;100132.40;;;12.68;44.86
42411;BME280;28056;51.112;0.984;2023-04-24T12:17:12;100137.05;;;12.87;49.05
42411;BME280;28056;51.112;0.984;2023-04-24T12:19:45;100124.53;;;9.35;52.91
42411;BME280;28056;51.112;0.984;2023-04-24T12:22:15;100144.26;;;11.40;56.63
42411;BME280;28056;51.112;0.984;2023-04-24T12:24:59;100142.32;;;13.22;49.73
42411;BME280;28056;51.112;0.984;2023-04-24T12:27:30;100148.41;;;14.00;48.20
42411;BME280;28056;51.112;0.984;2023-04-24T12:29:59;100150.31;;;10.80;56.50
42411;BME280;28056;51.112;0.984;2023-04-24T12:32:26;100150.27;;;11.14;57.31
42411;BME280;28056;51.112;0.984;2023-04-24T12:34:55;100152.86;;;10.14;60.57
42411;BME280;28056;51.112;0.984;2023-04-24T12:37:24;100151.91;;;10.36;64.12
42411;BME280;28056;51.112;0.984;2023-04-24T12:40:01;100155.64;;;9.71;65.87
42411;BME280;28056;51.112;0.984;2023-04-24T12:42:30;100156.24;;;9.70;69.15
42411;BME280;28056;51.112;0.984;2023-04-24T12:44:59;100156.52;;;9.06;71.96
42411;BME280;28056;51.112;0.984;2023-04-24T12:47:27;100153.41;;;9.16;71.90
42411;BME280;28056;51.112;0.984;2023-04-24T12:49:55;100154.53;;;9.55;69.72
42411;BME280;28056;51.112;0.984;2023-04-24T12:52:23;100149.47;;;10.84;66.20
42411;BME280;28056;51.112;0.984;2023-04-24T12:54:52;100156.70;;;11.42;62.76
42411;BME280;28056;51.112;0.984;2023-04-24T12:57:20;100145.83;;;10.09;64.38
42411;BME280;28056;51.112;0.984;2023-04-24T12:59:48;100145.17;;;10.83;61.98
42411;BME280;28056;51.112;0.984;2023-04-24T13:02:16;100142.30;;;11.23;62.82
42411;BME280;28056;51.112;0.984;2023-04-24T13:04:44;100146.23;;;10.16;64.59
42411;BME280;28056;51.112;0.984;2023-04-24T13:07:12;100151.39;;;10.54;63.51
42411;BME280;28056;51.112;0.984;2023-04-24T13:09:40;100150.81;;;11.33;60.24
42411;BME280;28056;51.112;0.984;2023-04-24T13:12:07;100150.64;;;11.40;60.80
42411;BME280;28056;51.112;0.984;2023-04-24T13:14:35;100153.05;;;11.25;63.02
42411;BME280;28056;51.112;0.984;2023-04-24T13:17:03;100159.06;;;11.27;63.91
42411;BME280;28056;51.112;0.984;2023-04-24T13:19:35;100161.10;;;10.34;61.07
42411;BME280;28056;51.112;0.984;2023-04-24T13:22:04;100165.10;;;10.15;60.95
42411;BME280;28056;51.112;0.984;2023-04-24T13:24:32;100163.58;;;10.20;65.08